Time;durP1;ratioP1;P1;durP2;ratioP2;P2;SDS_P1;SDS_P2;PMS_P1;PMS_P2;Temp;Humidity;BMP_temperature;BMP_pressure;BME280_temperature;BME280_humidity;BME280_pressure;Samples;Min_cycle;Max_cycle;Signal;HPM_P1;HPM_P2
2024/03/04 00:00:16;;;;;;;14.88;2.30;;;8.90;99.90;;;;;;5106251;28;20035;-73
2024/03/04 00:02:41;;;;;;;10.63;2.53;;;9.00;99.90;;;;;;5088692;28;20055;-73
2024/03/04 00:05:08;;;;;;;9.93;2.90;;;9.00;99.90;;;;;;5088260;28;20116;-73
2024/03/04 00:07:33;;;;;;;6.63;2.25;;;8.90;99.90;;;;;;5088734;28;20032;-73
2024/03/04 00:09:59;;;;;;;8.13;2.08;;;8.90;99.90;;;;;;5089165;28;20084;-72
2024/03/04 00:12:25;;;;;;;9.00;2.10;;;8.90;99.90;;;;;;5105761;28;20032;-73
2024/03/04 00:14:50;;;;;;;9.00;2.45;;;8.80;99.90;;;;;;5107453;28;20400;-73
2024/03/04 00:17:16;;;;;;;8.15;2.20;;;8.80;99.90;;;;;;5088137;28;20415;-73
2024/03/04 00:19:42;;;;;;;5.18;2.10;;;8.80;99.90;;;;;;5088473;28;20024;-72
2024/03/04 00:22:07;;;;;;;15.60;3.17;;;8.80;99.90;;;;;;5088737;28;20279;-74
2024/03/04 00:24:33;;;;;;;8.70;2.60;;;8.80;99.90;;;;;;5088009;28;20035;-73
2024/03/04 00:26:59;;;;;;;9.27;2.17;;;8.80;99.90;;;;;;5107578;28;20101;-72
2024/03/04 00:29:27;;;;;;;7.97;2.50;;;8.80;99.90;;;;;;5088030;28;20038;-73
2024/03/04 00:31:53;;;;;;;9.95;1.75;;;8.80;99.90;;;;;;5088182;28;20080;-73
2024/03/04 00:34:19;;;;;;;6.55;2.10;;;8.80;99.90;;;;;;5087316;28;20399;-72
2024/03/04 00:36:45;;;;;;;7.85;1.50;;;8.80;99.90;;;;;;5089167;28;20035;-73
2024/03/04 00:39:12;;;;;;;9.95;2.03;;;8.80;99.90;;;;;;5106834;28;20043;-72
2024/03/04 00:41:37;;;;;;;4.40;1.65;;;8.80;99.90;;;;;;5106441;28;20035;-73
2024/03/04 00:44:03;;;;;;;4.80;1.65;;;8.70;99.90;;;;;;5107227;28;20420;-72
2024/03/04 00:46:29;;;;;;;9.32;2.00;;;8.70;99.90;;;;;;5087178;28;20119;-72
2024/03/04 00:48:55;;;;;;;7.28;1.23;;;8.70;99.90;;;;;;5107182;28;20024;-72
2024/03/04 00:51:20;;;;;;;7.13;1.65;;;8.70;99.90;;;;;;5087535;28;20034;-71
2024/03/04 00:53:46;;;;;;;6.03;1.58;;;8.70;99.90;;;;;;5106997;28;20043;-72
2024/03/04 00:56:13;;;;;;;4.15;1.50;;;8.70;99.90;;;;;;5106869;28;20031;-73
2024/03/04 00:58:39;;;;;;;7.43;1.95;;;8.70;99.90;;;;;;5089018;28;20122;-72
2024/03/04 01:01:05;;;;;;;10.75;1.73;;;8.70;99.90;;;;;;5088395;28;20536;-72
2024/03/04 01:03:34;;;;;;;4.70;1.20;;;8.60;99.90;;;;;;5087396;28;20039;-72
2024/03/04 01:06:00;;;;;;;5.35;1.60;;;8.60;99.90;;;;;;5106653;28;20107;-73
2024/03/04 01:08:26;;;;;;;17.55;2.05;;;8.60;99.90;;;;;;5085706;28;20480;-72
2024/03/04 01:10:53;;;;;;;11.15;1.92;;;8.60;99.90;;;;;;5088138;28;20032;-73
2024/03/04 01:13:19;;;;;;;7.03;1.70;;;8.60;99.90;;;;;;5104054;28;20039;-72
2024/03/04 01:15:47;;;;;;;13.88;2.00;;;8.70;99.90;;;;;;5107666;28;20059;-73
2024/03/04 01:18:13;;;;;;;11.70;2.08;;;8.60;99.90;;;;;;5109665;28;20059;-75
2024/03/04 01:20:40;;;;;;;12.48;1.85;;;8.70;99.90;;;;;;5103816;28;20032;-73
2024/03/04 01:23:05;;;;;;;3.03;1.25;;;8.60;99.90;;;;;;5091614;28;20550;-72
2024/03/04 01:25:31;;;;;;;7.78;2.47;;;8.60;99.90;;;;;;5090471;28;20119;-73
2024/03/04 01:27:57;;;;;;;5.38;2.17;;;8.70;99.90;;;;;;5091769;28;20391;-72
2024/03/04 01:30:24;;;;;;;12.25;2.63;;;8.60;99.90;;;;;;5108709;28;20052;-72
2024/03/04 01:32:50;;;;;;;8.18;2.35;;;8.70;99.90;;;;;;5091873;28;20032;-73
2024/03/04 01:35:16;;;;;;;6.78;2.47;;;8.70;99.90;;;;;;5108789;28;20038;-73
2024/03/04 01:37:42;;;;;;;10.43;2.60;;;8.60;99.90;;;;;;5110161;28;20555;-72
2024/03/04 01:40:08;;;;;;;7.05;2.47;;;8.70;99.90;;;;;;5087766;28;20036;-74
2024/03/04 01:42:34;;;;;;;14.35;3.28;;;8.60;99.90;;;;;;5091159;28;20077;-73
2024/03/04 01:45:00;;;;;;;9.90;3.85;;;8.60;99.90;;;;;;5091870;28;20061;-72
2024/03/04 01:47:26;;;;;;;6.22;2.38;;;8.60;99.90;;;;;;5090370;28;20499;-73
2024/03/04 01:49:53;;;;;;;8.23;2.28;;;8.60;99.90;;;;;;5110138;28;20039;-72
2024/03/04 01:52:20;;;;;;;3.75;1.80;;;8.50;99.90;;;;;;5109300;28;20036;-73
2024/03/04 01:54:48;;;;;;;6.53;2.15;;;8.60;99.90;;;;;;5089527;28;20122;-73
2024/03/04 01:57:17;;;;;;;11.77;2.58;;;8.50;99.90;;;;;;5090373;28;20039;-74
2024/03/04 01:59:45;;;;;;;11.43;2.45;;;8.50;99.90;;;;;;5091442;28;20065;-73
2024/03/04 02:02:11;;;;;;;11.10;2.75;;;8.50;99.90;;;;;;5109342;28;20027;-72
2024/03/04 02:04:40;;;;;;;9.20;2.85;;;8.50;99.90;;;;;;5090546;28;20036;-73
2024/03/04 02:07:06;;;;;;;9.48;2.17;;;8.60;99.90;;;;;;5091121;28;20024;-75
2024/03/04 02:09:35;;;;;;;9.43;2.47;;;8.60;99.90;;;;;;5107390;28;20055;-73
2024/03/04 02:12:03;;;;;;;6.20;2.28;;;8.60;99.90;;;;;;5109552;28;20040;-73
2024/03/04 02:14:30;;;;;;;5.75;2.03;;;8.60;99.90;;;;;;5090258;28;20032;-73
2024/03/04 02:16:55;;;;;;;9.98;2.30;;;8.50;99.90;;;;;;5109570;28;20483;-72
2024/03/04 02:19:21;;;;;;;11.40;2.50;;;8.50;99.90;;;;;;5089951;28;20035;-73
2024/03/04 02:21:55;;;;;;;6.68;1.80;;;8.40;99.90;;;;;;5091078;28;20020;-73
2024/03/04 02:24:21;;;;;;;5.75;1.52;;;8.50;99.90;;;;;;5090248;28;20487;-73
2024/03/04 02:26:46;;;;;;;5.70;1.38;;;8.40;99.90;;;;;;5108530;28;20035;-73
2024/03/04 02:29:12;;;;;;;6.40;2.13;;;8.40;99.90;;;;;;5090073;28;20112;-73
2024/03/04 02:31:39;;;;;;;4.22;1.33;;;8.30;99.90;;;;;;5108959;28;20072;-74
2024/03/04 02:34:05;;;;;;;3.13;1.10;;;8.30;99.90;;;;;;5087445;28;20043;-73
2024/03/04 02:36:31;;;;;;;6.95;1.00;;;8.30;99.90;;;;;;5108136;28;20116;-73
2024/03/04 02:38:57;;;;;;;4.50;1.02;;;8.30;99.90;;;;;;5090693;28;20039;-72
2024/03/04 02:41:25;;;;;;;7.32;2.83;;;8.30;99.90;;;;;;5106817;28;20043;-72
2024/03/04 02:43:51;;;;;;;9.25;1.38;;;8.20;99.90;;;;;;5089922;28;20081;-73
2024/03/04 02:46:18;;;;;;;4.35;0.82;;;8.30;99.90;;;;;;5105487;28;20488;-73
2024/03/04 02:48:44;;;;;;;4.07;0.98;;;8.20;99.90;;;;;;5089819;28;20495;-73
2024/03/04 02:51:10;;;;;;;1.80;0.77;;;8.30;99.90;;;;;;5090109;28;20535;-73
2024/03/04 02:53:35;;;;;;;4.88;0.88;;;8.30;99.90;;;;;;5085187;28;20114;-72
2024/03/04 02:56:01;;;;;;;5.38;1.05;;;8.20;99.90;;;;;;5090232;28;20403;-73
2024/03/04 02:58:27;;;;;;;1.98;0.57;;;8.30;99.90;;;;;;5088801;28;20028;-73
2024/03/04 03:00:53;;;;;;;2.35;0.25;;;8.20;99.90;;;;;;5089846;28;20102;-74
2024/03/04 03:03:22;;;;;;;3.63;0.68;;;8.30;99.90;;;;;;5088443;28;20466;-73
2024/03/04 03:05:48;;;;;;;5.32;0.80;;;8.20;99.90;;;;;;5108712;28;20502;-73
2024/03/04 03:08:14;;;;;;;2.58;0.65;;;8.30;99.90;;;;;;5107306;28;20034;-73
2024/03/04 03:10:39;;;;;;;6.53;1.13;;;8.20;99.90;;;;;;5089458;28;20048;-73
2024/03/04 03:13:07;;;;;;;2.72;0.40;;;8.20;99.90;;;;;;5108554;28;20123;-72
2024/03/04 03:15:33;;;;;;;4.57;0.43;;;8.20;99.90;;;;;;5087617;28;20044;-72
2024/03/04 03:18:02;;;;;;;6.65;0.68;;;8.20;99.90;;;;;;5107988;28;20024;-73
2024/03/04 03:20:27;;;;;;;2.30;0.65;;;8.20;99.90;;;;;;5106299;28;20042;-73
2024/03/04 03:22:53;;;;;;;5.35;0.57;;;8.10;99.90;;;;;;5107986;28;20023;-73
2024/03/04 03:25:18;;;;;;;2.10;0.60;;;8.10;99.90;;;;;;5088709;28;20031;-73
2024/03/04 03:27:45;;;;;;;3.40;0.93;;;8.10;99.90;;;;;;5089561;28;20036;-73
2024/03/04 03:30:11;;;;;;;0.73;0.38;;;8.10;99.90;;;;;;5088211;28;20067;-73
2024/03/04 03:32:37;;;;;;;6.13;0.57;;;8.10;99.90;;;;;;5089045;28;20038;-73
2024/03/04 03:35:04;;;;;;;3.42;0.55;;;8.10;99.90;;;;;;5089550;28;20039;-73
2024/03/04 03:37:30;;;;;;;5.97;1.35;;;8.10;99.90;;;;;;5088333;28;20039;-72
2024/03/04 03:39:56;;;;;;;5.00;0.50;;;8.10;99.90;;;;;;5089074;28;20471;-73
2024/03/04 03:42:21;;;;;;;1.80;0.25;;;8.20;99.90;;;;;;5105990;28;20036;-73
2024/03/04 03:44:47;;;;;;;1.48;0.40;;;8.10;99.90;;;;;;5089202;28;20483;-73
2024/03/04 03:47:13;;;;;;;1.55;0.43;;;8.20;99.90;;;;;;5085146;28;20364;-73
2024/03/04 03:49:38;;;;;;;1.45;0.30;;;8.10;99.90;;;;;;5107272;28;20043;-73
2024/03/04 03:52:04;;;;;;;0.90;0.32;;;8.10;99.90;;;;;;5089132;28;20414;-73
2024/03/04 03:54:29;;;;;;;3.33;0.43;;;8.10;99.90;;;;;;5105933;28;20046;-73
2024/03/04 03:56:55;;;;;;;4.70;0.45;;;8.10;99.90;;;;;;5089072;28;20562;-73
2024/03/04 03:59:20;;;;;;;1.00;0.20;;;8.10;99.90;;;;;;5087656;28;20511;-73
2024/03/04 04:01:46;;;;;;;3.28;0.30;;;8.10;99.90;;;;;;5107403;28;20364;-75
2024/03/04 04:04:11;;;;;;;5.32;0.80;;;8.00;99.90;;;;;;5087350;28;20020;-73
2024/03/04 04:06:37;;;;;;;3.72;0.50;;;8.00;99.90;;;;;;5106819;28;20491;-73
2024/03/04 04:09:04;;;;;;;2.40;1.10;;;8.00;99.90;;;;;;5089230;28;20032;-72
2024/03/04 04:11:29;;;;;;;3.13;0.65;;;8.00;99.90;;;;;;5104141;28;20027;-73
2024/03/04 04:13:55;;;;;;;2.92;0.38;;;8.10;99.90;;;;;;5088766;28;20036;-72
2024/03/04 04:16:20;;;;;;;3.47;0.30;;;8.00;99.90;;;;;;5087684;28;20499;-73
2024/03/04 04:18:46;;;;;;;4.68;0.50;;;8.00;99.90;;;;;;5089049;28;20398;-73
2024/03/04 04:21:12;;;;;;;1.23;0.22;;;8.00;99.90;;;;;;5088025;28;20058;-73
2024/03/04 04:23:37;;;;;;;0.73;0.30;;;8.00;99.90;;;;;;5106447;28;20055;-72
2024/03/04 04:26:05;;;;;;;5.22;1.10;;;8.00;99.90;;;;;;5088365;28;20092;-73
2024/03/04 04:28:30;;;;;;;1.00;0.20;;;8.00;99.90;;;;;;5105921;28;20118;-73
2024/03/04 04:30:56;;;;;;;3.03;0.30;;;8.00;99.90;;;;;;5088661;28;20126;-73
2024/03/04 04:33:22;;;;;;;4.78;0.28;;;8.00;99.90;;;;;;5105547;28;20036;-73
2024/03/04 04:35:48;;;;;;;1.13;0.20;;;8.00;99.90;;;;;;5088906;28;20046;-73
2024/03/04 04:38:14;;;;;;;1.27;0.30;;;8.00;99.90;;;;;;5087619;28;20047;-75
2024/03/04 04:40:40;;;;;;;1.27;0.20;;;7.90;99.90;;;;;;5106568;28;20059;-72
2024/03/04 04:43:06;;;;;;;1.58;0.10;;;7.90;99.90;;;;;;5106728;28;20074;-73
2024/03/04 04:45:31;;;;;;;7.25;0.52;;;7.90;99.90;;;;;;5087654;28;20063;-73
2024/03/04 04:47:57;;;;;;;3.80;0.63;;;7.80;99.90;;;;;;5107378;28;20507;-73
2024/03/04 04:50:23;;;;;;;2.40;0.10;;;7.80;99.90;;;;;;5106168;28;20040;-73
2024/03/04 04:52:48;;;;;;;1.52;0.22;;;7.80;99.90;;;;;;5092354;28;20039;-73
2024/03/04 04:55:14;;;;;;;2.22;0.15;;;7.80;99.90;;;;;;5091953;28;20065;-75
2024/03/04 04:57:39;;;;;;;4.47;0.35;;;7.80;99.90;;;;;;5111268;28;20080;-72
2024/03/04 05:00:06;;;;;;;1.90;0.17;;;7.80;99.90;;;;;;5092981;28;20080;-73
2024/03/04 05:02:32;;;;;;;4.57;0.95;;;7.80;99.90;;;;;;5091014;28;20070;-73
2024/03/04 05:04:57;;;;;;;3.08;0.30;;;7.80;99.90;;;;;;5111158;28;20080;-72
2024/03/04 05:07:23;;;;;;;1.02;0.20;;;7.80;99.90;;;;;;5109852;28;20032;-72
2024/03/04 05:09:49;;;;;;;3.10;0.30;;;7.70;99.90;;;;;;5092677;28;20071;-73
2024/03/04 05:12:14;;;;;;;2.65;0.20;;;7.70;99.90;;;;;;5091014;28;20032;-74
2024/03/04 05:14:40;;;;;;;1.85;0.25;;;7.60;99.90;;;;;;5092766;28;20036;-73
2024/03/04 05:17:07;;;;;;;4.13;0.50;;;7.60;99.90;;;;;;5092858;28;20035;-73
2024/03/04 05:19:36;;;;;;;0.98;0.30;;;7.60;99.90;;;;;;5109162;28;20031;-72
2024/03/04 05:22:02;;;;;;;2.00;0.30;;;7.50;99.90;;;;;;5092725;28;20522;-73
2024/03/04 05:24:28;;;;;;;2.80;0.98;;;7.50;99.90;;;;;;5109431;28;20173;-74
2024/03/04 05:26:54;;;;;;;4.53;0.25;;;7.50;99.90;;;;;;5092241;28;20127;-73
2024/03/04 05:29:19;;;;;;;3.72;0.75;;;7.50;99.90;;;;;;5109160;28;20487;-73
2024/03/04 05:31:58;;;;;;;1.45;0.45;;;7.50;99.90;;;;;;5090678;28;20126;-73
2024/03/04 05:34:24;;;;;;;3.78;0.10;;;7.50;99.90;;;;;;5093336;27;20028;-72
2024/03/04 05:36:50;;;;;;;1.60;0.20;;;7.50;99.90;;;;;;5095879;28;20042;-73
2024/03/04 05:39:21;;;;;;;7.38;0.95;;;7.50;99.90;;;;;;5108600;28;20035;-73
2024/03/04 05:41:48;;;;;;;6.40;0.30;;;7.40;99.90;;;;;;5091381;28;20176;-73
2024/03/04 05:44:15;;;;;;;0.73;0.20;;;7.40;99.90;;;;;;5107829;28;20497;-72
2024/03/04 05:46:41;;;;;;;4.80;0.95;;;7.40;99.90;;;;;;5086341;28;20475;-73
2024/03/04 05:49:08;;;;;;;3.88;0.47;;;7.40;99.90;;;;;;5108031;28;20043;-73
2024/03/04 05:51:38;;;;;;;3.00;0.40;;;7.40;99.90;;;;;;5089394;28;20062;-72
2024/03/04 05:54:03;;;;;;;4.72;0.28;;;7.40;99.90;;;;;;5091059;28;20031;-73
2024/03/04 05:56:29;;;;;;;3.78;0.60;;;7.40;99.90;;;;;;5107388;28;20497;-74
2024/03/04 05:58:54;;;;;;;3.65;0.20;;;7.40;99.90;;;;;;5090099;28;20042;-73
2024/03/04 06:01:20;;;;;;;1.77;0.40;;;7.40;99.90;;;;;;5088296;28;20056;-74
2024/03/04 06:03:46;;;;;;;1.38;0.20;;;7.40;99.90;;;;;;5089291;28;20039;-73
2024/03/04 06:06:12;;;;;;;2.17;0.35;;;7.40;99.90;;;;;;5088352;28;20574;-73
2024/03/04 06:08:37;;;;;;;3.65;0.20;;;7.40;99.90;;;;;;5089037;28;20036;-73
2024/03/04 06:11:03;;;;;;;2.38;0.30;;;7.40;99.90;;;;;;5107918;28;20506;-73
2024/03/04 06:13:29;;;;;;;3.33;0.68;;;7.40;99.90;;;;;;5088292;28;20036;-72
2024/03/04 06:15:54;;;;;;;3.75;0.80;;;7.40;99.90;;;;;;5089570;28;20371;-74
2024/03/04 06:18:20;;;;;;;3.55;1.33;;;7.30;99.90;;;;;;5088387;28;20042;-73
2024/03/04 06:20:45;;;;;;;1.23;0.20;;;7.30;99.90;;;;;;5104224;28;20120;-73
2024/03/04 06:23:11;;;;;;;1.25;0.43;;;7.30;99.90;;;;;;5085677;28;20028;-73
2024/03/04 06:25:37;;;;;;;2.22;0.57;;;7.30;99.90;;;;;;5108018;27;20483;-74
2024/03/04 06:28:02;;;;;;;8.55;0.50;;;7.30;99.90;;;;;;5092253;27;20138;-74
2024/03/04 06:30:28;;;;;;;0.77;0.10;;;7.40;99.90;;;;;;5110863;27;20126;-73
2024/03/04 06:32:54;;;;;;;3.88;0.50;;;7.30;99.90;;;;;;5089260;28;20042;-73
2024/03/04 06:35:19;;;;;;;2.53;0.47;;;7.30;99.90;;;;;;5087601;28;20085;-73
2024/03/04 06:37:45;;;;;;;0.45;0.17;;;7.40;99.90;;;;;;5085747;28;20031;-73
2024/03/04 06:40:11;;;;;;;1.60;0.40;;;7.30;99.90;;;;;;5087433;28;20076;-73
2024/03/04 06:42:37;;;;;;;1.90;0.30;;;7.30;99.90;;;;;;5088583;28;20376;-72
2024/03/04 06:45:03;;;;;;;7.43;0.55;;;7.40;99.90;;;;;;5107618;28;20050;-73
2024/03/04 06:47:28;;;;;;;4.95;1.20;;;7.40;99.90;;;;;;5106835;28;21171;-73
2024/03/04 06:49:54;;;;;;;3.40;0.50;;;7.40;99.90;;;;;;5107239;28;20418;-73
2024/03/04 06:52:19;;;;;;;2.80;0.40;;;7.40;99.90;;;;;;5105340;28;20354;-75
2024/03/04 06:54:48;;;;;;;7.60;0.80;;;7.40;99.90;;;;;;5088747;28;20032;-73
2024/03/04 06:57:17;;;;;;;2.08;0.30;;;7.50;99.90;;;;;;5088241;28;20479;-73
2024/03/04 06:59:43;;;;;;;3.40;0.40;;;7.50;99.90;;;;;;5087910;28;20035;-73
2024/03/04 07:02:08;;;;;;;4.68;0.40;;;7.50;99.90;;;;;;5106885;28;20032;-73
2024/03/04 07:04:34;;;;;;;6.78;0.50;;;7.50;99.90;;;;;;5105853;28;20048;-74
2024/03/04 07:06:59;;;;;;;2.42;0.38;;;7.60;99.90;;;;;;5106741;28;20092;-73
2024/03/04 07:09:25;;;;;;;3.25;0.63;;;7.60;99.90;;;;;;5105693;28;20611;-73
2024/03/04 07:11:50;;;;;;;3.17;0.38;;;7.60;99.90;;;;;;5090388;28;20441;-73
2024/03/04 07:14:16;;;;;;;3.60;0.55;;;7.70;99.90;;;;;;5086505;28;20508;-75
2024/03/04 07:16:42;;;;;;;1.38;0.47;;;7.70;99.90;;;;;;5084706;28;20576;-75
2024/03/04 07:19:07;;;;;;;2.13;1.27;;;7.70;99.90;;;;;;5106426;28;20398;-73
2024/03/04 07:21:33;;;;;;;0.65;0.20;;;7.70;99.90;;;;;;5087167;28;20100;-73
2024/03/04 07:23:58;;;;;;;2.13;0.30;;;7.80;99.90;;;;;;5088311;28;20031;-72
2024/03/04 07:26:24;;;;;;;2.55;0.30;;;7.80;99.90;;;;;;5084670;28;20460;-72
2024/03/04 07:28:49;;;;;;;6.90;0.20;;;7.90;99.90;;;;;;5106602;28;20110;-73
2024/03/04 07:31:15;;;;;;;1.42;0.22;;;7.90;99.90;;;;;;5105442;28;20032;-74
2024/03/04 07:33:42;;;;;;;4.72;0.40;;;8.00;99.90;;;;;;5085437;28;20031;-73
2024/03/04 07:36:10;;;;;;;7.72;1.00;;;8.00;99.90;;;;;;5106568;28;20119;-73
2024/03/04 07:38:36;;;;;;;2.67;0.30;;;8.10;99.90;;;;;;5087213;28;20023;-73
2024/03/04 07:41:02;;;;;;;1.08;0.20;;;8.10;99.90;;;;;;5107063;28;20034;-73
2024/03/04 07:43:28;;;;;;;3.88;0.30;;;8.20;99.90;;;;;;5105022;28;20028;-72
2024/03/04 07:45:53;;;;;;;2.35;0.30;;;8.30;99.90;;;;;;5087972;28;20042;-72
2024/03/04 07:48:19;;;;;;;2.60;0.30;;;8.30;99.90;;;;;;5086875;28;20028;-72
2024/03/04 07:50:44;;;;;;;3.08;0.40;;;8.40;99.90;;;;;;5088215;28;20043;-72
2024/03/04 07:53:10;;;;;;;6.07;0.47;;;8.40;99.90;;;;;;5087867;28;20036;-71
2024/03/04 07:55:35;;;;;;;1.80;0.73;;;8.50;99.90;;;;;;5102746;28;20065;-72
2024/03/04 07:58:01;;;;;;;5.10;0.25;;;8.60;99.90;;;;;;5088035;28;20384;-72
2024/03/04 08:00:27;;;;;;;2.22;0.52;;;8.70;99.90;;;;;;5105422;28;20670;-72
2024/03/04 08:02:53;;;;;;;10.73;0.55;;;8.70;99.90;;;;;;5112304;27;20036;-72
2024/03/04 08:05:18;;;;;;;2.83;0.30;;;8.70;99.90;;;;;;5083616;28;20031;-72
2024/03/04 08:07:44;;;;;;;6.70;0.70;;;8.80;99.90;;;;;;5079915;28;20036;-72
2024/03/04 08:10:10;;;;;;;3.10;0.60;;;8.90;99.90;;;;;;5078995;28;20036;-73
2024/03/04 08:12:36;;;;;;;2.45;0.50;;;9.00;99.90;;;;;;5105075;28;20051;-73
2024/03/04 08:15:02;;;;;;;1.13;0.50;;;9.00;99.90;;;;;;5100422;28;20070;-72
2024/03/04 08:17:28;;;;;;;3.13;0.47;;;9.10;99.90;;;;;;5085940;28;20035;-72
2024/03/04 08:19:56;;;;;;;5.07;0.52;;;9.10;99.90;;;;;;5103445;28;20038;-74
2024/03/04 08:22:22;;;;;;;5.85;0.30;;;9.20;99.90;;;;;;5077733;28;20039;-73
2024/03/04 08:24:48;;;;;;;8.40;0.95;;;9.30;99.90;;;;;;5083322;28;20039;-74
2024/03/04 08:27:14;;;;;;;2.05;0.93;;;9.30;99.90;;;;;;5102120;28;20023;-73
2024/03/04 08:29:40;;;;;;;1.02;0.13;;;9.50;99.90;;;;;;5086632;28;20483;-74
2024/03/04 08:32:06;;;;;;;3.58;0.40;;;9.60;99.90;;;;;;5087050;28;20031;-73
2024/03/04 08:34:32;;;;;;;4.88;0.43;;;9.70;99.90;;;;;;5104172;28;20329;-73
2024/03/04 08:36:58;;;;;;;3.03;0.45;;;9.70;99.90;;;;;;5085451;28;20577;-74
2024/03/04 08:39:24;;;;;;;1.42;0.17;;;9.80;99.90;;;;;;5084270;28;20031;-73
2024/03/04 08:41:49;;;;;;;0.85;0.20;;;9.90;99.90;;;;;;5104611;28;20441;-73
2024/03/04 08:44:16;;;;;;;3.20;0.85;;;10.00;99.90;;;;;;5084459;28;20078;-73
2024/03/04 08:46:43;;;;;;;1.05;0.52;;;10.10;99.90;;;;;;5104093;28;20080;-73
2024/03/04 08:49:13;;;;;;;1.33;0.30;;;10.20;99.90;;;;;;5085674;28;20072;-73
2024/03/04 08:51:39;;;;;;;1.90;0.10;;;10.30;99.90;;;;;;5085004;28;20031;-73
2024/03/04 08:54:04;;;;;;;1.05;0.20;;;10.30;99.90;;;;;;5085158;28;20436;-73
2024/03/04 08:56:30;;;;;;;0.65;0.20;;;10.30;99.90;;;;;;5103480;28;20472;-72
2024/03/04 08:58:59;;;;;;;2.63;0.13;;;10.30;99.90;;;;;;5085785;28;20105;-73
2024/03/04 09:01:31;;;;;;;4.05;0.38;;;10.40;99.90;;;;;;5104453;28;20569;-74
2024/03/04 09:03:57;;;;;;;2.58;0.20;;;10.30;99.90;;;;;;5085113;28;20036;-74
2024/03/04 09:06:24;;;;;;;2.20;0.08;;;10.30;99.90;;;;;;5084876;28;20027;-74
2024/03/04 09:08:50;;;;;;;0.40;0.13;;;10.30;99.90;;;;;;5086017;28;20089;-73
2024/03/04 09:11:16;;;;;;;4.57;0.43;;;10.20;99.90;;;;;;5085551;28;20023;-74
2024/03/04 09:13:42;;;;;;;0.65;0.20;;;10.20;99.90;;;;;;5085948;28;20039;-74
2024/03/04 09:16:07;;;;;;;1.20;0.20;;;10.20;99.90;;;;;;5083479;28;20467;-72
2024/03/04 09:18:33;;;;;;;2.35;0.45;;;10.30;99.90;;;;;;5085405;28;20047;-73
2024/03/04 09:21:03;;;;;;;1.08;0.20;;;10.30;99.90;;;;;;5104670;28;20065;-73
2024/03/04 09:23:28;;;;;;;2.42;0.28;;;10.40;99.90;;;;;;5082563;28;20027;-74
2024/03/04 09:25:54;;;;;;;4.90;1.02;;;10.50;99.90;;;;;;5085690;28;20043;-74
2024/03/04 09:28:20;;;;;;;0.88;0.20;;;10.50;99.90;;;;;;5083981;28;20467;-74
2024/03/04 09:30:46;;;;;;;3.55;0.63;;;10.50;99.90;;;;;;5086047;28;20047;-74
2024/03/04 09:33:12;;;;;;;4.53;0.45;;;10.50;99.90;;;;;;5083575;28;20036;-74
2024/03/04 09:35:38;;;;;;;1.80;0.35;;;10.60;99.90;;;;;;5085612;28;20031;-74
2024/03/04 09:38:04;;;;;;;4.75;0.70;;;10.60;99.90;;;;;;5087156;28;20077;-74
2024/03/04 09:40:30;;;;;;;0.52;0.10;;;10.70;99.90;;;;;;5086436;28;20036;-74
2024/03/04 09:42:57;;;;;;;2.90;0.13;;;10.60;99.90;;;;;;5088078;28;20065;-74
2024/03/04 09:45:26;;;;;;;0.98;0.20;;;10.50;99.90;;;;;;5087621;28;20024;-74
2024/03/04 09:47:55;;;;;;;0.55;0.10;;;10.50;99.90;;;;;;5088186;28;20116;-74
2024/03/04 09:50:24;;;;;;;1.08;0.25;;;10.50;99.90;;;;;;5089134;28;20035;-75
2024/03/04 09:52:50;;;;;;;0.35;0.10;;;10.40;99.90;;;;;;5088350;28;20039;-74
2024/03/04 09:55:17;;;;;;;2.50;0.55;;;10.40;99.90;;;;;;5084979;28;20036;-72
2024/03/04 09:57:43;;;;;;;0.95;0.28;;;10.40;99.90;;;;;;5108257;27;20036;-73
2024/03/04 10:00:13;;;;;;;1.65;0.20;;;10.50;99.90;;;;;;5088103;28;20495;-76
2024/03/04 10:02:41;;;;;;;0.38;0.20;;;10.60;99.90;;;;;;5087073;28;20059;-73
2024/03/04 10:05:11;;;;;;;2.22;0.50;;;10.70;99.90;;;;;;5090770;28;20043;-72
2024/03/04 10:07:37;;;;;;;1.35;0.30;;;10.80;99.90;;;;;;5094667;28;20027;-73
2024/03/04 10:10:10;;;;;;;0.77;0.30;;;10.90;99.90;;;;;;5090782;28;20036;-72
2024/03/04 10:12:36;;;;;;;1.80;0.60;;;10.90;99.90;;;;;;5092232;27;20077;-70
2024/03/04 10:15:09;;;;;;;0.32;0.10;;;11.00;99.90;;;;;;5108812;27;20028;-71
2024/03/04 10:17:37;;;;;;;4.07;1.33;;;11.00;99.90;;;;;;5086412;28;20092;-73
2024/03/04 10:20:05;;;;;;;2.35;0.40;;;11.20;99.90;;;;;;5093555;27;20040;-72
2024/03/04 10:22:35;;;;;;;0.68;0.30;;;11.20;99.90;;;;;;5107649;27;20031;-72
2024/03/04 10:25:04;;;;;;;3.70;0.90;;;11.40;99.90;;;;;;5114140;27;20027;-71
2024/03/04 10:27:31;;;;;;;1.25;0.70;;;11.40;99.90;;;;;;5088441;28;20043;-73
2024/03/04 10:30:18;;;;;;;1.55;0.50;;;11.50;99.90;;;;;;5086857;28;20055;-73
2024/03/04 10:32:55;;;;;;;1.83;0.60;;;11.40;99.90;;;;;;5104311;28;20040;-73
2024/03/04 10:35:21;;;;;;;1.73;0.40;;;11.50;99.90;;;;;;5085313;28;20038;-72
2024/03/04 10:37:49;;;;;;;1.85;0.82;;;11.50;99.90;;;;;;5084025;28;20376;-73
2024/03/04 10:40:18;;;;;;;2.67;0.43;;;11.50;99.90;;;;;;5085584;28;20129;-75
2024/03/04 10:42:45;;;;;;;0.73;0.20;;;11.50;99.90;;;;;;5107111;28;20054;-74
2024/03/04 10:45:12;;;;;;;1.48;0.65;;;11.50;99.90;;;;;;5085965;28;20281;-75
2024/03/04 10:47:43;;;;;;;0.25;0.10;;;11.40;99.90;;;;;;5083801;28;20023;-72
2024/03/04 10:50:12;;;;;;;0.45;0.10;;;11.50;99.90;;;;;;5088884;28;20051;-75
2024/03/04 10:52:38;;;;;;;1.10;0.22;;;11.60;99.90;;;;;;5084430;28;20032;-75
2024/03/04 10:55:04;;;;;;;2.40;0.22;;;11.60;99.90;;;;;;5086935;28;20044;-72
2024/03/04 10:57:32;;;;;;;1.20;0.20;;;11.60;99.90;;;;;;5086577;28;20055;-71
2024/03/04 11:00:17;;;;;;;1.40;0.17;;;11.50;99.90;;;;;;5088871;28;20032;-72
2024/03/04 11:02:50;;;;;;;1.75;0.55;;;11.40;99.90;;;;;;5104176;28;20088;-75
2024/03/04 11:05:21;;;;;;;0.30;0.20;;;11.50;99.90;;;;;;5082569;28;20042;-73
2024/03/04 11:07:50;;;;;;;1.25;0.20;;;11.40;99.90;;;;;;5106159;28;20036;-76
2024/03/04 11:10:27;;;;;;;5.20;0.85;;;11.50;99.90;;;;;;5105579;28;20036;-72
2024/03/04 11:13:18;;;;;;;1.08;0.28;;;11.60;99.90;;;;;;5103704;28;20096;-72
2024/03/04 11:15:57;;;;;;;2.00;0.40;;;11.50;99.90;;;;;;5091736;28;20530;-73
2024/03/04 11:18:43;;;;;;;1.17;0.50;;;11.60;99.90;;;;;;5101107;28;20040;-71
2024/03/04 11:21:10;;;;;;;1.58;0.30;;;11.60;99.90;;;;;;5084952;28;20027;-72
2024/03/04 11:23:36;;;;;;;2.30;0.40;;;11.50;99.90;;;;;;5084061;28;20035;-72
2024/03/04 11:26:03;;;;;;;0.63;0.13;;;11.50;99.90;;;;;;5083571;28;20107;-72
2024/03/04 11:28:31;;;;;;;1.10;0.30;;;11.60;99.90;;;;;;5083549;28;20050;-72
2024/03/04 11:30:56;;;;;;;0.63;0.20;;;11.50;99.90;;;;;;5104234;28;20089;-73
2024/03/04 11:33:41;;;;;;;3.22;1.02;;;11.60;99.90;;;;;;5083215;28;20031;-72
2024/03/04 11:36:08;;;;;;;0.85;0.52;;;11.50;99.90;;;;;;5102162;28;20158;-74
2024/03/04 11:38:46;;;;;;;1.45;0.75;;;11.50;99.90;;;;;;5102234;28;20039;-72
2024/03/04 11:41:33;;;;;;;1.75;0.43;;;11.40;99.90;;;;;;5085550;28;20059;-71
2024/03/04 11:43:58;;;;;;;0.90;0.30;;;11.30;99.90;;;;;;5104111;28;20122;-72
2024/03/04 11:46:24;;;;;;;1.10;0.30;;;11.20;99.90;;;;;;5104886;28;20131;-72
2024/03/04 11:48:49;;;;;;;3.38;0.20;;;11.20;99.90;;;;;;5088241;28;20031;-72
2024/03/04 11:51:46;;;;;;;1.00;0.80;;;11.10;99.90;;;;;;5084964;28;20031;-74
2024/03/04 11:54:11;;;;;;;3.83;0.40;;;11.20;99.90;;;;;;5101823;28;20042;-72
2024/03/04 11:56:40;;;;;;;3.30;0.25;;;11.20;99.90;;;;;;5105577;28;20566;-73
2024/03/04 11:59:06;;;;;;;0.82;0.22;;;11.20;99.90;;;;;;5085708;28;20031;-74
2024/03/04 12:01:38;;;;;;;1.85;0.30;;;11.20;99.90;;;;;;5083028;28;20063;-72
2024/03/04 12:04:03;;;;;;;0.68;0.30;;;11.30;99.90;;;;;;5101895;28;20036;-72
2024/03/04 12:06:30;;;;;;;1.30;0.40;;;11.30;99.90;;;;;;5087023;28;20039;-72
2024/03/04 12:08:56;;;;;;;0.85;0.22;;;11.30;99.90;;;;;;5086854;28;20027;-72
2024/03/04 12:11:21;;;;;;;1.70;0.30;;;11.40;99.90;;;;;;5085775;28;20529;-72
2024/03/04 12:13:47;;;;;;;1.58;0.50;;;11.40;99.90;;;;;;5086711;28;20028;-73
2024/03/04 12:16:13;;;;;;;1.30;0.45;;;11.30;99.90;;;;;;5102890;28;20403;-71
2024/03/04 12:18:40;;;;;;;1.50;0.70;;;11.30;99.90;;;;;;5104773;28;20031;-72
2024/03/04 12:21:06;;;;;;;1.17;0.38;;;11.30;99.90;;;;;;5105520;28;20372;-71
2024/03/04 12:23:32;;;;;;;2.72;1.08;;;11.30;99.90;;;;;;5085208;28;20039;-71
2024/03/04 12:26:13;;;;;;;1.35;0.40;;;11.30;99.90;;;;;;5105031;28;20073;-71
2024/03/04 12:28:39;;;;;;;0.98;0.47;;;11.30;99.90;;;;;;5083853;28;20036;-72
2024/03/04 12:31:12;;;;;;;1.25;0.40;;;11.30;99.90;;;;;;5087020;28;20043;-72
2024/03/04 12:33:38;;;;;;;1.30;0.50;;;11.30;99.90;;;;;;5086570;28;20054;-72
2024/03/04 12:36:07;;;;;;;0.28;0.15;;;11.40;99.90;;;;;;5090302;28;20471;-72
2024/03/04 12:38:34;;;;;;;0.82;0.60;;;11.40;99.90;;;;;;5085347;28;20059;-72
2024/03/04 12:40:59;;;;;;;0.52;0.30;;;11.40;99.90;;;;;;5084811;28;20039;-74
2024/03/04 12:43:26;;;;;;;1.02;0.50;;;11.40;99.90;;;;;;5084282;28;20402;-71
2024/03/04 12:45:52;;;;;;;4.10;1.33;;;11.30;99.90;;;;;;5085836;28;20402;-72
2024/03/04 12:48:18;;;;;;;0.85;0.30;;;11.30;99.90;;;;;;5085919;28;20491;-76
2024/03/04 12:50:45;;;;;;;1.30;0.60;;;11.20;99.90;;;;;;5083581;28;20451;-72